Weather at Mesmer Airport

Public forecast

Using degrees Fahrenheit for public forecast. Weather courtesy of forecast.io.

Closest aviation weather report (METAR) to Mesmer Airport

Closest report is Niagara Falls International Airport, 7.2 nm (13.3 km) NNE.

2024/05/24 20:53 (retrieved 9 minutes ago)

KIAG 242053Z 23005KT 10SM SCT070 25/09 A2985 RMK AO2 SLP104 T02500094 58009

Closest aviation forecast (TAF) to Mesmer Airport

Closest forecast is Niagara Falls International Airport, 7.2 nm (13.3 km) NNE.

2024/05/24 18:36 (retrieved 2 hours ago)

TAF KIAG 241734Z 2418/2518 24010KT P6SM SKC FM250000 VRB03KT P6SM SKC FM250800 10007KT P6SM FEW250 FM251200 22013G21KT P6SM BKN200 FM251500 25013KT P6SM VCSH BKN060